createdAt,value
2018-10-21T00:01:26.697Z,12.39
2018-10-21T00:03:55.426Z,12.35
2018-10-21T00:06:25.161Z,12.34
2018-10-21T00:08:53.879Z,12.32
2018-10-21T00:11:22.659Z,12.35
2018-10-21T00:13:51.405Z,12.40
2018-10-21T00:16:20.182Z,12.41
2018-10-21T00:18:48.912Z,12.46
2018-10-21T00:21:17.723Z,12.46
2018-10-21T00:23:46.628Z,12.44
2018-10-21T00:26:15.360Z,12.50
2018-10-21T00:28:44.135Z,12.50
2018-10-21T00:31:12.834Z,12.53
2018-10-21T00:33:41.575Z,12.62
2018-10-21T00:36:10.350Z,12.65
2018-10-21T00:38:39.138Z,12.60
2018-10-21T00:41:07.839Z,12.61
2018-10-21T00:43:36.941Z,12.61
2018-10-21T00:46:06.221Z,12.57
2018-10-21T00:48:35.086Z,12.59
2018-10-21T00:51:03.993Z,12.60
2018-10-21T00:53:32.874Z,12.54
2018-10-21T00:56:01.671Z,12.52
2018-10-21T00:58:30.447Z,12.56
2018-10-21T01:00:59.197Z,12.61
2018-10-21T01:03:27.889Z,12.65
2018-10-21T01:05:56.710Z,12.67
2018-10-21T01:08:25.461Z,12.68
2018-10-21T01:11:00.640Z,12.68
2018-10-21T01:13:29.427Z,12.73
2018-10-21T01:15:58.214Z,12.74
2018-10-21T01:18:26.956Z,12.73
2018-10-21T01:20:55.731Z,12.66
2018-10-21T01:23:24.633Z,12.60
2018-10-21T01:25:53.378Z,12.55
2018-10-21T01:28:22.484Z,12.53
2018-10-21T01:30:51.222Z,12.46
2018-10-21T01:33:19.982Z,12.43
2018-10-21T01:35:48.725Z,12.43
2018-10-21T01:38:17.572Z,12.40
2018-10-21T01:40:47.565Z,12.37
2018-10-21T01:43:17.894Z,12.33
2018-10-21T01:45:46.632Z,12.32
2018-10-21T01:48:16.641Z,12.28
2018-10-21T01:50:45.404Z,12.24
2018-10-21T01:53:15.017Z,12.25
2018-10-21T01:55:43.771Z,12.24
2018-10-21T01:58:12.514Z,12.25
2018-10-21T02:00:41.814Z,12.21
2018-10-21T02:03:10.793Z,12.20
2018-10-21T02:05:40.389Z,12.15
2018-10-21T02:08:09.093Z,12.15
2018-10-21T02:10:37.854Z,12.16
2018-10-21T02:13:06.677Z,12.11
2018-10-21T02:15:35.661Z,12.07
2018-10-21T02:18:04.883Z,12.06
2018-10-21T02:20:33.598Z,12.04
2018-10-21T02:23:02.573Z,12.03
2018-10-21T02:25:31.328Z,11.96
2018-10-21T02:28:00.066Z,11.93
2018-10-21T02:30:29.811Z,11.91
2018-10-21T02:32:59.132Z,11.90
2018-10-21T02:35:28.090Z,11.87
2018-10-21T02:37:57.722Z,11.90
2018-10-21T02:41:39.309Z,11.90
2018-10-21T02:44:09.305Z,11.82
2018-10-21T02:46:38.972Z,11.81
2018-10-21T02:49:08.540Z,11.78
2018-10-21T02:51:37.300Z,11.78
2018-10-21T02:54:07.275Z,11.79
2018-10-21T02:56:36.092Z,11.79
2018-10-21T02:59:05.236Z,11.80
2018-10-21T03:01:34.014Z,11.85
2018-10-21T03:04:02.774Z,11.87
2018-10-21T03:06:31.650Z,11.94
2018-10-21T03:09:00.431Z,11.95
2018-10-21T03:11:29.209Z,12.00
2018-10-21T03:13:57.956Z,12.07
2018-10-21T03:16:26.703Z,12.06
2018-10-21T03:18:55.458Z,12.05
2018-10-21T03:21:24.202Z,11.95
2018-10-21T03:23:52.999Z,11.80
2018-10-21T03:26:21.818Z,11.62
2018-10-21T03:28:50.593Z,11.46
2018-10-21T03:31:19.332Z,11.38
2018-10-21T03:33:48.093Z,11.29
2018-10-21T03:36:17.032Z,11.18
2018-10-21T03:38:45.810Z,11.13
2018-10-21T03:41:14.570Z,10.98
2018-10-21T03:43:43.304Z,10.92
2018-10-21T03:46:13.528Z,10.79
2018-10-21T03:48:42.679Z,10.72
2018-10-21T03:51:11.762Z,10.59
2018-10-21T03:53:40.464Z,10.56
2018-10-21T03:56:09.210Z,10.57
2018-10-21T03:58:37.981Z,10.49
2018-10-21T04:01:07.369Z,10.47
2018-10-21T04:03:36.172Z,10.43
2018-10-21T04:06:04.970Z,10.46
2018-10-21T04:08:33.648Z,10.50
2018-10-21T04:11:02.399Z,10.41
2018-10-21T04:13:31.141Z,10.34
2018-10-21T04:15:59.909Z,10.28
2018-10-21T04:18:28.679Z,10.22
2018-10-21T04:20:57.397Z,10.16
2018-10-21T04:23:26.130Z,10.28
2018-10-21T04:25:54.903Z,10.38
2018-10-21T04:28:23.665Z,10.40
2018-10-21T04:30:52.476Z,10.50
2018-10-21T04:33:52.717Z,10.47
2018-10-21T04:36:26.315Z,10.46
2018-10-21T04:40:11.423Z,10.37
2018-10-21T04:42:40.335Z,10.48
2018-10-21T04:45:09.802Z,10.54
2018-10-21T04:47:38.521Z,10.59
2018-10-21T04:50:08.628Z,10.61
2018-10-21T04:52:37.321Z,10.64
2018-10-21T04:55:10.106Z,10.63
2018-10-21T04:57:40.116Z,10.69
2018-10-21T05:00:12.815Z,10.69
2018-10-21T05:02:41.593Z,10.73
2018-10-21T05:05:11.990Z,10.80
2018-10-21T05:07:41.220Z,10.86
2018-10-21T05:10:35.391Z,10.91
2018-10-21T05:13:05.167Z,10.94
2018-10-21T05:15:35.110Z,10.93
2018-10-21T05:18:04.110Z,10.95
2018-10-21T05:20:32.935Z,10.99
2018-10-21T05:23:01.643Z,10.92
2018-10-21T05:25:30.390Z,10.90
2018-10-21T05:27:59.196Z,11.05
2018-10-21T05:30:27.994Z,11.10
2018-10-21T05:32:56.737Z,11.19
2018-10-21T05:35:25.603Z,11.27
2018-10-21T05:37:54.336Z,11.35
2018-10-21T05:40:23.813Z,11.50
2018-10-21T05:42:52.949Z,11.52
2018-10-21T05:45:22.686Z,11.57
2018-10-21T05:47:51.919Z,11.58
2018-10-21T05:50:20.971Z,11.68
2018-10-21T05:52:49.766Z,11.79
2018-10-21T05:55:18.545Z,11.88
2018-10-21T05:57:51.468Z,12.02
2018-10-21T06:00:20.921Z,11.93
2018-10-21T06:02:49.784Z,11.96
2018-10-21T06:05:44.916Z,11.98
2018-10-21T06:08:13.768Z,11.93
2018-10-21T06:10:43.163Z,11.99
2018-10-21T06:13:12.258Z,12.04
2018-10-21T06:15:41.384Z,12.09
2018-10-21T06:18:19.110Z,12.15
2018-10-21T06:20:51.440Z,12.29
2018-10-21T06:23:20.351Z,12.26
2018-10-21T06:25:49.207Z,12.12
2018-10-21T06:28:18.072Z,12.24
2018-10-21T06:30:46.878Z,12.28
2018-10-21T06:33:15.793Z,12.32
2018-10-21T06:35:44.689Z,12.37
2018-10-21T06:38:13.596Z,12.45
2018-10-21T06:40:42.426Z,12.46
2018-10-21T06:43:11.161Z,12.52
2018-10-21T06:45:40.148Z,12.58
2018-10-21T06:48:09.081Z,12.51
2018-10-21T06:50:37.935Z,12.61
2018-10-21T06:53:06.806Z,12.67
2018-10-21T06:55:35.580Z,12.80
2018-10-21T06:58:04.353Z,12.84
2018-10-21T07:00:33.136Z,12.90
2018-10-21T07:03:01.917Z,12.93
2018-10-21T07:06:44.339Z,12.96
2018-10-21T07:09:13.071Z,13.14
2018-10-21T07:11:41.834Z,13.25
2018-10-21T07:14:10.609Z,13.23
2018-10-21T07:16:39.563Z,13.32
2018-10-21T07:19:08.379Z,13.38
2018-10-21T07:21:37.126Z,13.44
2018-10-21T07:24:06.181Z,13.53
2018-10-21T07:26:34.910Z,13.53
2018-10-21T07:29:03.653Z,13.59
2018-10-21T07:31:32.459Z,13.68
2018-10-21T07:34:01.274Z,13.62
2018-10-21T07:36:30.349Z,13.72
2018-10-21T07:38:59.380Z,13.85
2018-10-21T07:41:28.211Z,13.80
2018-10-21T07:43:56.988Z,13.83
2018-10-21T07:46:32.182Z,13.71
2018-10-21T07:49:01.015Z,13.87
2018-10-21T07:51:29.971Z,13.81
2018-10-21T07:53:58.829Z,13.90
2018-10-21T07:56:27.571Z,13.98
2018-10-21T07:58:56.279Z,14.03
2018-10-21T08:01:25.041Z,14.00
2018-10-21T08:03:53.990Z,13.95
2018-10-21T08:07:34.011Z,13.97
2018-10-21T08:10:02.909Z,14.10
2018-10-21T08:12:31.918Z,14.22
2018-10-21T08:15:00.779Z,14.27
2018-10-21T08:17:29.770Z,14.32
2018-10-21T08:19:58.566Z,14.42
2018-10-21T08:22:27.397Z,14.56
2018-10-21T08:24:56.172Z,14.65
2018-10-21T08:27:25.028Z,14.80
2018-10-21T08:29:53.834Z,14.92
2018-10-21T08:32:22.561Z,14.91
2018-10-21T08:34:51.440Z,14.79
2018-10-21T08:37:20.319Z,14.82
2018-10-21T08:39:49.069Z,14.84
2018-10-21T08:42:17.870Z,15.11
2018-10-21T08:44:46.685Z,15.23
2018-10-21T08:47:15.519Z,15.26
2018-10-21T08:49:44.326Z,15.18
2018-10-21T08:52:13.505Z,15.17
2018-10-21T08:54:42.501Z,15.25
2018-10-21T08:57:11.258Z,15.23
2018-10-21T08:59:40.029Z,15.31
2018-10-21T09:02:08.870Z,15.48
2018-10-21T09:04:37.825Z,15.50
2018-10-21T09:07:06.670Z,15.52
2018-10-21T09:09:35.652Z,15.57
2018-10-21T09:12:04.797Z,15.68
2018-10-21T09:14:33.651Z,15.67
2018-10-21T09:17:02.435Z,15.60
2018-10-21T09:19:31.206Z,15.60
2018-10-21T09:21:59.992Z,15.77
2018-10-21T09:24:28.747Z,15.71
2018-10-21T09:26:57.509Z,15.63
2018-10-21T09:29:26.299Z,15.71
2018-10-21T09:31:55.096Z,15.83
2018-10-21T09:34:23.868Z,15.72
2018-10-21T09:36:52.606Z,15.71
2018-10-21T09:39:21.859Z,15.61
2018-10-21T09:41:50.979Z,15.79
2018-10-21T09:44:19.812Z,15.89
2018-10-21T09:46:48.543Z,15.94
2018-10-21T09:49:17.442Z,15.78
2018-10-21T09:51:46.337Z,15.78
2018-10-21T09:54:15.144Z,15.93
2018-10-21T09:56:44.049Z,15.85
2018-10-21T09:59:12.863Z,16.12
2018-10-21T10:01:46.873Z,16.35
2018-10-21T10:04:15.723Z,16.50
2018-10-21T10:06:44.860Z,16.46
2018-10-21T10:09:14.412Z,16.44
2018-10-21T10:11:43.979Z,16.37
2018-10-21T10:14:12.711Z,16.28
2018-10-21T10:16:41.488Z,16.18
2018-10-21T10:19:10.381Z,16.16
2018-10-21T10:21:39.340Z,16.04
2018-10-21T10:24:08.092Z,16.03
2018-10-21T10:26:36.939Z,15.90
2018-10-21T10:29:05.972Z,15.95
2018-10-21T10:31:34.796Z,15.97
2018-10-21T10:34:03.706Z,15.93
2018-10-21T10:36:32.615Z,15.79
2018-10-21T10:39:01.481Z,15.63
2018-10-21T10:41:30.250Z,15.59
2018-10-21T10:43:59.067Z,15.51
2018-10-21T10:46:27.911Z,15.48
2018-10-21T10:48:56.745Z,15.47
2018-10-21T10:51:25.530Z,15.33
2018-10-21T10:53:55.997Z,15.26
2018-10-21T10:56:24.817Z,15.40
2018-10-21T10:58:53.634Z,15.33
2018-10-21T11:01:22.423Z,15.22
2018-10-21T11:03:51.178Z,15.40
2018-10-21T11:06:20.026Z,15.52
2018-10-21T11:08:48.969Z,15.54
2018-10-21T11:11:17.773Z,15.57
2018-10-21T11:13:46.585Z,15.63
2018-10-21T11:16:15.459Z,15.75
2018-10-21T11:18:44.331Z,15.83
2018-10-21T11:21:13.079Z,15.78
2018-10-21T11:23:41.873Z,15.76
2018-10-21T11:26:11.352Z,15.72
2018-10-21T11:28:40.180Z,15.72
2018-10-21T11:31:08.989Z,15.61
2018-10-21T11:33:37.957Z,15.49
2018-10-21T11:36:06.798Z,15.30
2018-10-21T11:38:35.553Z,15.11
2018-10-21T11:41:04.760Z,14.97
2018-10-21T11:43:33.510Z,14.83
2018-10-21T11:46:02.420Z,14.63
2018-10-21T11:48:31.298Z,14.46
2018-10-21T11:51:00.093Z,14.28
2018-10-21T11:53:28.841Z,14.28
2018-10-21T11:55:57.606Z,14.14
2018-10-21T11:58:26.370Z,14.07
2018-10-21T12:00:55.467Z,14.10
2018-10-21T12:03:24.401Z,14.13
2018-10-21T12:05:53.106Z,14.15
2018-10-21T12:08:21.849Z,14.09
2018-10-21T12:10:50.617Z,14.10
2018-10-21T12:13:19.391Z,14.12
2018-10-21T12:15:48.243Z,14.07
2018-10-21T12:18:17.094Z,14.00
2018-10-21T12:20:46.005Z,14.01
2018-10-21T12:23:14.796Z,13.91
2018-10-21T12:25:44.186Z,13.79
2018-10-21T12:28:13.181Z,13.67
2018-10-21T12:30:42.137Z,13.70
2018-10-21T12:33:10.923Z,13.71
2018-10-21T12:35:50.089Z,13.65
2018-10-21T12:38:18.859Z,13.70
2018-10-21T12:40:47.651Z,13.63
2018-10-21T12:43:16.496Z,13.70
2018-10-21T12:45:45.411Z,13.66
2018-10-21T12:48:14.157Z,13.70
2018-10-21T12:50:44.186Z,13.64
2018-10-21T12:53:13.070Z,13.66
2018-10-21T12:55:49.804Z,13.68
2018-10-21T12:58:19.264Z,13.67
2018-10-21T13:00:48.439Z,13.64
2018-10-21T13:03:17.450Z,13.48
2018-10-21T13:05:46.179Z,13.40
2018-10-21T13:08:15.030Z,13.45
2018-10-21T13:10:43.897Z,13.55
2018-10-21T13:13:12.971Z,13.64
2018-10-21T13:15:41.948Z,13.65
2018-10-21T13:18:10.708Z,13.67
2018-10-21T13:20:39.533Z,13.37
2018-10-21T13:23:08.306Z,13.32
2018-10-21T13:25:37.041Z,13.24
2018-10-21T13:28:06.269Z,13.08
2018-10-21T13:30:35.251Z,13.11
2018-10-21T13:33:04.127Z,13.07
2018-10-21T13:35:33.034Z,12.99
2018-10-21T13:38:01.943Z,13.01
2018-10-21T13:40:30.770Z,12.97
2018-10-21T13:42:59.737Z,12.95
2018-10-21T13:45:28.500Z,12.78
2018-10-21T13:47:57.334Z,12.78
2018-10-21T13:50:26.122Z,12.67
2018-10-21T13:52:54.945Z,12.63
2018-10-21T13:55:23.874Z,12.62
2018-10-21T13:57:53.301Z,12.56
2018-10-21T14:00:24.664Z,12.46
2018-10-21T14:02:53.823Z,12.46
2018-10-21T14:05:22.675Z,12.49
2018-10-21T14:07:51.445Z,12.34
2018-10-21T14:10:20.372Z,12.09
2018-10-21T14:12:49.114Z,12.11
2018-10-21T14:15:17.921Z,12.13
2018-10-21T14:17:46.920Z,12.10
2018-10-21T14:20:16.576Z,12.16
2018-10-21T14:22:45.801Z,12.17
2018-10-21T14:25:14.598Z,12.10
2018-10-21T14:27:43.398Z,11.99
2018-10-21T14:30:14.291Z,11.95
2018-10-21T14:32:43.162Z,11.97
2018-10-21T14:35:11.961Z,11.87
2018-10-21T14:37:40.769Z,11.83
2018-10-21T14:40:11.882Z,11.83
2018-10-21T14:42:40.975Z,11.74
2018-10-21T14:45:11.226Z,11.78
2018-10-21T14:47:40.652Z,11.82
2018-10-21T14:50:10.405Z,11.84
2018-10-21T14:52:39.189Z,11.87
2018-10-21T14:55:09.366Z,11.94
2018-10-21T14:57:38.589Z,11.98
2018-10-21T15:00:14.790Z,11.92
2018-10-21T15:02:43.952Z,11.88
2018-10-21T15:05:13.696Z,11.90
2018-10-21T15:07:45.281Z,11.91
2018-10-21T15:10:14.116Z,11.87
2018-10-21T15:12:43.043Z,11.81
2018-10-21T15:15:12.235Z,11.71
2018-10-21T15:17:41.074Z,11.37
2018-10-21T15:20:12.234Z,11.23
2018-10-21T15:22:41.155Z,11.21
2018-10-21T15:25:11.509Z,11.32
2018-10-21T15:27:40.688Z,11.24
2018-10-21T15:30:10.406Z,11.13
2018-10-21T15:32:39.815Z,11.01
2018-10-21T15:35:08.784Z,10.92
2018-10-21T15:37:37.540Z,10.88
2018-10-21T15:40:08.472Z,10.95
2018-10-21T15:42:37.391Z,10.98
2018-10-21T15:45:08.138Z,10.97
2018-10-21T15:47:36.934Z,11.03
2018-10-21T15:50:06.302Z,11.08
2018-10-21T15:52:35.279Z,11.15
2018-10-21T15:55:04.197Z,11.24
2018-10-21T15:57:32.982Z,11.27
2018-10-21T16:00:02.240Z,11.22
2018-10-21T16:02:31.151Z,11.28
2018-10-21T16:05:00.207Z,11.14
2018-10-21T16:07:28.968Z,11.16
2018-10-21T16:10:04.680Z,11.26
2018-10-21T16:12:33.638Z,11.31
2018-10-21T16:15:02.667Z,11.34
2018-10-21T16:17:31.413Z,11.39
2018-10-21T16:20:00.166Z,11.36
2018-10-21T16:22:29.233Z,11.22
2018-10-21T16:24:57.993Z,11.26
2018-10-21T16:27:26.716Z,11.13
2018-10-21T16:29:55.503Z,11.10
2018-10-21T16:32:24.325Z,11.05
2018-10-21T16:34:53.301Z,10.98
2018-10-21T16:37:22.149Z,11.05
2018-10-21T16:39:52.190Z,10.95
2018-10-21T16:42:21.054Z,10.92
2018-10-21T16:44:49.861Z,10.95
2018-10-21T16:47:18.628Z,10.95
2018-10-21T16:49:47.523Z,10.89
2018-10-21T16:52:16.315Z,10.87
2018-10-21T16:54:45.247Z,10.73
2018-10-21T16:57:14.218Z,10.80
2018-10-21T16:59:43.273Z,10.84
2018-10-21T17:02:13.861Z,10.89
2018-10-21T17:04:43.481Z,10.94
2018-10-21T17:07:12.317Z,10.94
2018-10-21T17:09:41.506Z,11.01
2018-10-21T17:12:10.254Z,11.04
2018-10-21T17:14:39.376Z,11.06
2018-10-21T17:17:08.607Z,11.15
2018-10-21T17:19:38.815Z,11.17
2018-10-21T17:22:08.857Z,11.16
2018-10-21T17:24:38.340Z,11.19
2018-10-21T17:27:08.788Z,11.20
2018-10-21T17:29:37.565Z,11.16
2018-10-21T17:32:06.365Z,11.20
2018-10-21T17:34:35.147Z,11.19
2018-10-21T17:37:04.791Z,11.16
2018-10-21T17:39:33.730Z,11.10
2018-10-21T17:42:02.656Z,11.07
2018-10-21T17:44:31.475Z,11.09
2018-10-21T17:47:00.265Z,11.16
2018-10-21T17:49:29.106Z,11.20
2018-10-21T17:51:58.029Z,11.18
2018-10-21T17:54:26.994Z,11.18
2018-10-21T17:56:57.624Z,11.20
2018-10-21T17:59:26.708Z,11.13
2018-10-21T18:01:56.129Z,11.13
2018-10-21T18:04:25.249Z,11.18
2018-10-21T18:06:54.041Z,11.17
2018-10-21T18:09:22.929Z,11.24
2018-10-21T18:11:51.722Z,11.21
2018-10-21T18:14:20.500Z,11.11
2018-10-21T18:16:49.369Z,11.04
2018-10-21T18:19:18.129Z,11.02
2018-10-21T18:21:46.903Z,10.96
2018-10-21T18:24:15.655Z,10.95
2018-10-21T18:26:44.821Z,10.98
2018-10-21T18:29:13.627Z,10.90
2018-10-21T18:31:42.458Z,10.91
2018-10-21T18:34:11.345Z,10.87
2018-10-21T18:36:40.211Z,10.97
2018-10-21T18:39:10.349Z,10.98
2018-10-21T18:41:39.184Z,11.08
2018-10-21T18:44:08.839Z,11.03
2018-10-21T18:46:37.659Z,11.07
2018-10-21T18:49:06.463Z,11.08
2018-10-21T18:51:35.486Z,11.05
2018-10-21T18:54:04.419Z,11.09
2018-10-21T18:56:33.191Z,11.09
2018-10-21T18:59:01.979Z,11.10
2018-10-21T19:01:30.735Z,11.04
2018-10-21T19:03:59.564Z,11.08
2018-10-21T19:06:28.503Z,11.02
2018-10-21T19:08:57.320Z,11.16
2018-10-21T19:11:32.658Z,11.28
2018-10-21T19:14:01.460Z,11.26
2018-10-21T19:16:30.326Z,11.30
2018-10-21T19:18:59.168Z,11.37
2018-10-21T19:21:28.101Z,11.44
2018-10-21T19:23:56.882Z,11.50
2018-10-21T19:26:26.056Z,11.56
2018-10-21T19:28:54.825Z,11.57
2018-10-21T19:31:23.578Z,11.64
2018-10-21T19:33:52.410Z,11.59
2018-10-21T19:36:21.394Z,11.57
2018-10-21T19:38:50.247Z,11.54
2018-10-21T19:41:18.987Z,11.56
2018-10-21T19:43:47.711Z,11.56
2018-10-21T19:46:16.626Z,11.58
2018-10-21T19:48:45.480Z,11.57
2018-10-21T19:51:14.295Z,11.59
2018-10-21T19:53:43.070Z,11.68
2018-10-21T19:56:11.847Z,11.75
2018-10-21T19:58:40.633Z,11.75
2018-10-21T20:01:09.601Z,11.71
2018-10-21T20:03:38.529Z,11.72
2018-10-21T20:06:07.476Z,11.69
2018-10-21T20:08:36.249Z,11.73
2018-10-21T20:11:05.326Z,11.77
2018-10-21T20:13:34.087Z,11.75
2018-10-21T20:16:02.873Z,11.74
2018-10-21T20:18:32.220Z,11.73
2018-10-21T20:21:01.002Z,11.73
2018-10-21T20:23:36.423Z,11.70
2018-10-21T20:26:05.465Z,11.70
2018-10-21T20:28:34.303Z,11.64
2018-10-21T20:31:03.175Z,11.71
2018-10-21T20:33:32.081Z,11.67
2018-10-21T20:36:00.848Z,11.64
2018-10-21T20:38:29.798Z,11.62
2018-10-21T20:40:58.676Z,11.60
2018-10-21T20:43:27.474Z,11.63
2018-10-21T20:45:56.214Z,11.65
2018-10-21T20:48:25.101Z,11.68
2018-10-21T20:50:53.826Z,11.63
2018-10-21T20:53:22.569Z,11.65
2018-10-21T20:55:51.345Z,11.64
2018-10-21T20:58:20.169Z,11.66
2018-10-21T21:00:49.051Z,11.60
2018-10-21T21:03:17.819Z,11.54
2018-10-21T21:05:46.616Z,11.52
2018-10-21T21:08:15.607Z,11.52
2018-10-21T21:10:44.421Z,11.47
2018-10-21T21:13:13.158Z,11.47
2018-10-21T21:15:41.941Z,11.47
2018-10-21T21:18:10.770Z,11.45
2018-10-21T21:20:39.737Z,11.39
2018-10-21T21:23:08.696Z,11.42
2018-10-21T21:25:37.522Z,11.42
2018-10-21T21:28:07.630Z,11.40
2018-10-21T21:30:36.615Z,11.38
2018-10-21T21:33:06.328Z,11.38
2018-10-21T21:35:35.116Z,11.34
2018-10-21T21:38:03.941Z,11.33
2018-10-21T21:40:32.651Z,11.31
2018-10-21T21:43:01.448Z,11.32
2018-10-21T21:45:30.177Z,11.34
2018-10-21T21:47:58.950Z,11.38
2018-10-21T21:50:27.893Z,11.36
2018-10-21T21:52:56.667Z,11.35
2018-10-21T21:55:25.375Z,11.34
2018-10-21T21:57:54.132Z,11.36
2018-10-21T22:00:22.957Z,11.45
2018-10-21T22:02:51.704Z,11.48
2018-10-21T22:05:20.477Z,11.48
2018-10-21T22:07:49.218Z,11.44
2018-10-21T22:10:18.047Z,11.41
2018-10-21T22:12:46.908Z,11.45
2018-10-21T22:15:15.661Z,11.43
2018-10-21T22:17:44.430Z,11.43
2018-10-21T22:20:14.071Z,11.53
2018-10-21T22:22:43.102Z,11.57
2018-10-21T22:25:11.959Z,11.56
2018-10-21T22:27:40.672Z,11.54
2018-10-21T22:30:11.232Z,11.50
2018-10-21T22:32:40.235Z,11.51
2018-10-21T22:35:09.910Z,11.49
2018-10-21T22:37:38.658Z,11.41
2018-10-21T22:40:07.545Z,11.35
2018-10-21T22:42:36.361Z,11.18
2018-10-21T22:45:06.123Z,11.14
2018-10-21T22:47:34.922Z,11.14
2018-10-21T22:50:03.782Z,11.01
2018-10-21T22:52:32.506Z,10.98
2018-10-21T22:55:01.246Z,11.01
2018-10-21T22:57:30.001Z,11.07
2018-10-21T22:59:58.717Z,11.14
2018-10-21T23:02:27.649Z,11.15
2018-10-21T23:04:56.460Z,11.13
2018-10-21T23:07:25.258Z,11.15
2018-10-21T23:09:54.092Z,11.22
2018-10-21T23:12:22.997Z,11.26
2018-10-21T23:14:51.743Z,11.30
2018-10-21T23:17:20.490Z,11.21
2018-10-21T23:19:50.386Z,11.21
2018-10-21T23:22:19.203Z,11.20
2018-10-21T23:24:48.058Z,11.23
2018-10-21T23:27:16.832Z,11.23
2018-10-21T23:29:45.631Z,11.29
2018-10-21T23:32:14.401Z,11.29
2018-10-21T23:34:43.171Z,11.33
2018-10-21T23:37:11.893Z,11.37
2018-10-21T23:39:40.639Z,11.40
2018-10-21T23:42:09.473Z,11.35
2018-10-21T23:44:38.379Z,11.43
2018-10-21T23:47:07.148Z,11.43
2018-10-21T23:49:35.864Z,11.42
2018-10-21T23:52:05.079Z,11.46
2018-10-21T23:54:33.974Z,11.48
2018-10-21T23:57:05.200Z,11.52
2018-10-21T23:59:35.063Z,11.50
